Terminal Aerodrome Forecast
Issued by NWS

Home | Current Version | Previous Version | Text Only | Print | Product List | Glossary On
Versions: 1 2 3 4 5 6 7 8 9 10 11 12 13 14 15 16
000
FTUS41 KAKQ 291724
TAFPHF
TAF
KPHF 291724Z 2918/3018 32010G16KT P6SM SKC
     FM292000 28009KT P6SM SKC
     FM292300 20006KT P6SM SCT250
     FM301000 22010KT P6SM OVC100
     FM301300 24013KT P6SM -RA BKN050=

USA.gov is the U.S. government's official web portal to all federal, state and local government web resources and services.